Albuquerque, NM (87114)

7:58 AM MDT on May 05, 2015 (GMT -0600)
Cantabella @ Ventana Ranch | | Change Station
CLOSE
Current Station
Personal Weather Station
Location: Albuquerque, NM
Elevation: 5384 ft
Nearby Weather Stations

Elev 5384 ft 35.20 °N, 106.72 °W | Updated 14 minutes ago

Mostly Cloudy
Mostly Cloudy
55.8 °F
Feels Like 55.8 °F
N
4.3
Wind Variable Wind from ESE

Today
High -- | Low -- °F
--% Chance of Precip.
Yesterday
High -- | Low -- °F
Precip. -- in
6:12 AM 7:56 PM
Full, 98% visible
Pressure 29.83 in
Visibility 10.0 miles
Clouds Few 800 ft
Scattered Clouds 2500 ft
Mostly Cloudy 3400 ft
Dew Point 48 °F
Humidity 75%
Rainfall 0.00 in
Snow Depth Not available.
UV 0 out of 12
Pollen 4.60 out of 12
Air Quality Not available.
Flu Activity Local Activity
METAR KABQ 051252Z 20007KT 10SM FEW008 SCT025 BKN034 11/09 A2996 RMK AO2 SLP099 MTNS OBSC NE-SE T01060089

More Conditions Fewer Conditions

Pressure 29.83 in
Visibility 10.0 miles
Clouds Few 800 ft
Scattered Clouds 2500 ft
Mostly Cloudy 3400 ft
Dew Point 48 °F
Humidity 75%
Rainfall 0.00 in
Snow Depth Not available.
UV 0 out of 12
Pollen 4.60 out of 12
Air Quality Not available.
Flu Activity Local Activity
METAR KABQ 051252Z 20007KT 10SM FEW008 SCT025 BKN034 11/09 A2996 RMK AO2 SLP099 MTNS OBSC NE-SE T01060089

More Conditions Fewer Conditions

Nepal has a long way to go to dig out and rebuild from a devastating earthquake. We have teamed up with several charities and organizations to make contributing to the relief effort as easy as possible.
How you can help: Portlight Strategies | Red Cross

10-Day Weather Forecast

Almanac

Astronomy

May. 05, 2015 Rise Set
Actual Time
Civil Twilight
Nautical Twilight
Astronomical Twilight
Moon
Length of Visible Light
Length of Day
Tomorrow will be .
, % of the Moon is Illuminated

Today's Extremes

State Highs State Lows

Community

WunderPhotos

Upload Photos

1,818,889 photos uploaded!

WunderBlogs® & News

Nearby

Air Quality

  Air Quality AQ Index Pollutant
Not available.

Snow Depth

Station Depth Elevation

Earthquake Activity

City Distance Mag. Time & Date
Minimum magnitude displayed is 2.5.

Coastal Water Temperatures

Place Temperature

Stations

Nearby Weather Stations

Station Location Temp. Windchill Dew Point Humidity Wind Precip. Elev Updated Type